Time;durP1;ratioP1;P1;durP2;ratioP2;P2;SDS_P1;SDS_P2;PMS_P1;PMS_P2;Temp;Humidity;BMP_temperature;BMP_pressure;BME280_temperature;BME280_humidity;BME280_pressure;Samples;Min_cycle;Max_cycle;Signal;HPM_P1;HPM_P2
2022/12/18 00:01:34;;;;;;;109.70;35.83;;;-2.30;99.90;;;;;;5090407;28;20200;-68
2022/12/18 00:04:07;;;;;;;104.40;36.90;;;-2.40;99.90;;;;;;5089839;28;20207;-68
2022/12/18 00:06:35;;;;;;;101.67;35.40;;;-2.40;99.90;;;;;;5085949;28;20204;-68
2022/12/18 00:09:03;;;;;;;105.77;33.80;;;-2.50;99.90;;;;;;5089383;28;20227;-69
2022/12/18 00:11:30;;;;;;;92.00;33.87;;;-2.60;99.90;;;;;;5089231;28;20663;-68
2022/12/18 00:13:59;;;;;;;96.67;33.57;;;-2.70;99.90;;;;;;5089796;28;20299;-68
2022/12/18 00:16:27;;;;;;;97.13;36.67;;;-2.70;99.90;;;;;;5088970;28;20763;-68
2022/12/18 00:18:59;;;;;;;102.20;35.17;;;-2.80;99.90;;;;;;5086289;28;20196;-68
2022/12/18 00:21:27;;;;;;;93.83;34.63;;;-2.90;99.90;;;;;;5089629;28;20303;-68
2022/12/18 00:23:54;;;;;;;95.93;34.90;;;-3.00;99.90;;;;;;5085900;28;20303;-69
2022/12/18 00:26:24;;;;;;;106.77;35.23;;;-3.10;99.90;;;;;;5089773;28;20192;-68
2022/12/18 00:28:51;;;;;;;96.77;33.57;;;-3.10;99.90;;;;;;5089738;28;20217;-67
2022/12/18 00:31:21;;;;;;;111.13;38.27;;;-3.20;99.90;;;;;;5089678;28;20206;-67
2022/12/18 00:33:48;;;;;;;113.53;35.17;;;-3.20;99.90;;;;;;5089499;28;20287;-67
2022/12/18 00:36:23;;;;;;;117.30;35.83;;;-3.20;99.90;;;;;;5089664;28;20205;-68
2022/12/18 00:38:50;;;;;;;106.07;37.60;;;-3.20;99.90;;;;;;5088348;28;20674;-67
2022/12/18 00:42:55;;;;;;;111.73;35.87;;;-3.20;99.90;;;;;;5089468;28;20202;-67
2022/12/18 00:44:07;;;;;;;114.37;35.97;;;-3.30;99.90;;;;;;5089419;28;20291;-67
2022/12/18 00:46:33;;;;;;;104.17;35.83;;;-3.30;99.90;;;;;;5090054;28;20464;-67
2022/12/18 00:49:00;;;;;;;131.80;37.87;;;-3.30;99.90;;;;;;5089662;28;20203;-68
2022/12/18 00:51:27;;;;;;;109.00;35.03;;;-3.30;99.90;;;;;;5088415;28;20228;-68
2022/12/18 00:53:54;;;;;;;123.57;35.80;;;-3.30;99.90;;;;;;5087553;28;20196;-67
2022/12/18 00:56:24;;;;;;;105.07;35.83;;;-3.30;99.90;;;;;;5089657;28;20302;-67
2022/12/18 00:58:51;;;;;;;103.33;34.20;;;-3.30;99.90;;;;;;5086085;28;20706;-68
2022/12/18 01:01:18;;;;;;;109.37;34.60;;;-3.30;99.90;;;;;;5088243;28;20204;-67
2022/12/18 01:03:46;;;;;;;113.50;36.77;;;-3.40;99.90;;;;;;5088353;28;20283;-67
2022/12/18 01:06:14;;;;;;;99.80;34.07;;;-3.30;99.90;;;;;;5088963;28;20269;-67
2022/12/18 01:08:41;;;;;;;94.10;34.17;;;-3.30;99.90;;;;;;5088929;28;20690;-67
2022/12/18 01:11:14;;;;;;;95.70;34.77;;;-3.30;99.90;;;;;;5089554;28;20204;-67
2022/12/18 01:13:41;;;;;;;95.03;32.53;;;-3.40;99.90;;;;;;5088944;28;20675;-67
2022/12/18 01:16:08;;;;;;;99.53;35.40;;;-3.40;99.90;;;;;;5088877;28;20227;-68
2022/12/18 01:18:35;;;;;;;106.37;34.23;;;-3.50;99.90;;;;;;5089286;28;20207;-68
2022/12/18 01:21:13;;;;;;;98.97;34.47;;;-3.50;99.90;;;;;;5089243;28;20532;-67
2022/12/18 01:23:40;;;;;;;109.73;34.00;;;-3.50;99.90;;;;;;5099749;28;20206;-68
2022/12/18 01:26:13;;;;;;;103.87;33.67;;;-3.60;99.90;;;;;;5087104;28;20204;-67
2022/12/18 01:28:41;;;;;;;99.00;32.87;;;-3.60;99.90;;;;;;5091398;28;20294;-67
2022/12/18 01:31:31;;;;;;;90.90;34.30;;;-3.60;99.90;;;;;;5093497;28;20199;-69
2022/12/18 01:34:01;;;;;;;92.07;33.47;;;-3.70;99.90;;;;;;5082938;28;20228;-68
2022/12/18 01:36:36;;;;;;;89.70;32.23;;;-3.70;99.90;;;;;;5092909;28;20200;-69
2022/12/18 01:39:06;;;;;;;89.30;31.33;;;-3.80;99.90;;;;;;5093481;28;20609;-69
2022/12/18 01:44:54;;;;;;;90.23;32.20;;;-3.90;99.90;;;;;;5089360;28;20204;-67
2022/12/18 01:47:30;;;;;;;77.07;31.37;;;-4.00;99.90;;;;;;5092030;28;20672;-68
2022/12/18 01:50:00;;;;;;;96.50;32.27;;;-4.10;99.90;;;;;;5091420;28;20199;-68
2022/12/18 01:52:30;;;;;;;88.43;31.97;;;-4.10;99.90;;;;;;5092741;28;20228;-68
2022/12/18 01:54:58;;;;;;;97.17;32.50;;;-4.20;99.90;;;;;;5092754;28;20295;-67
2022/12/18 01:57:26;;;;;;;87.87;32.70;;;-4.20;99.90;;;;;;5092416;28;20216;-68
2022/12/18 01:59:55;;;;;;;86.67;30.50;;;-4.30;99.90;;;;;;5092362;28;20210;-67
2022/12/18 02:02:22;;;;;;;93.90;30.47;;;-4.30;99.90;;;;;;5092058;28;20667;-67
2022/12/18 02:04:49;;;;;;;91.33;32.47;;;-4.30;99.90;;;;;;5091789;28;20214;-69
2022/12/18 02:07:31;;;;;;;84.70;32.37;;;-4.30;99.90;;;;;;5092634;28;20234;-68
2022/12/18 02:10:21;;;;;;;93.93;31.63;;;-4.40;99.90;;;;;;5092505;28;20219;-68
2022/12/18 02:13:02;;;;;;;85.50;31.03;;;-4.40;99.90;;;;;;5091912;28;20237;-68
2022/12/18 02:15:43;;;;;;;86.53;32.60;;;-4.40;99.90;;;;;;5090127;28;20265;-68
2022/12/18 02:18:36;;;;;;;96.40;34.13;;;-4.40;99.90;;;;;;5092377;28;20214;-68
2022/12/18 02:21:32;;;;;;;93.07;32.77;;;-4.40;99.90;;;;;;5088629;28;20302;-68
2022/12/18 02:24:35;;;;;;;86.43;30.10;;;-4.50;99.90;;;;;;5089773;28;20199;-68
2022/12/18 02:27:06;;;;;;;84.80;32.80;;;-4.50;99.90;;;;;;5088878;28;20317;-68
2022/12/18 02:29:35;;;;;;;97.10;32.63;;;-4.60;99.90;;;;;;5091571;28;20208;-68
2022/12/18 02:32:05;;;;;;;92.07;32.20;;;-4.60;99.90;;;;;;5090761;28;20633;-68
2022/12/18 02:34:37;;;;;;;87.60;31.57;;;-4.60;99.90;;;;;;5091320;28;20218;-68
2022/12/18 02:37:08;;;;;;;91.10;30.27;;;-4.70;99.90;;;;;;5091792;28;20286;-68
2022/12/18 02:39:38;;;;;;;95.80;33.07;;;-4.70;99.90;;;;;;5090751;28;20240;-68
2022/12/18 02:42:07;;;;;;;85.67;33.13;;;-4.70;99.90;;;;;;5091601;28;20308;-68
2022/12/18 02:44:42;;;;;;;81.40;30.47;;;-4.70;99.90;;;;;;5090273;28;20207;-68
2022/12/18 02:47:14;;;;;;;82.60;31.53;;;-4.70;99.90;;;;;;5091752;28;20696;-68
2022/12/18 02:49:59;;;;;;;90.87;30.27;;;-4.70;99.90;;;;;;5091099;28;20208;-68
2022/12/18 02:52:38;;;;;;;88.23;31.10;;;-4.70;99.90;;;;;;5091454;28;20317;-69
2022/12/18 02:55:21;;;;;;;88.20;33.17;;;-4.80;99.90;;;;;;5088148;28;20285;-68
2022/12/18 02:58:02;;;;;;;81.87;31.03;;;-4.80;99.90;;;;;;5088720;28;20765;-69
2022/12/18 03:00:42;;;;;;;87.73;32.43;;;-4.80;99.90;;;;;;5091930;28;20199;-68
2022/12/18 03:03:16;;;;;;;87.10;31.77;;;-4.80;99.90;;;;;;5091835;28;20293;-68
2022/12/18 03:05:46;;;;;;;81.27;31.57;;;-4.90;99.90;;;;;;5090527;28;20227;-69
2022/12/18 03:08:21;;;;;;;88.53;31.73;;;-4.90;99.90;;;;;;5088809;28;20198;-69
2022/12/18 03:11:01;;;;;;;83.77;31.00;;;-4.90;99.90;;;;;;5091230;28;20738;-68
2022/12/18 03:13:39;;;;;;;93.60;31.83;;;-5.00;99.90;;;;;;5088567;28;20258;-69
2022/12/18 03:16:11;;;;;;;88.17;31.53;;;-5.00;99.90;;;;;;5089050;28;20751;-68
2022/12/18 03:18:40;;;;;;;84.97;32.53;;;-5.00;99.90;;;;;;5091371;28;20287;-69
2022/12/18 03:21:09;;;;;;;94.27;32.63;;;-5.00;99.90;;;;;;5090700;28;20229;-68
2022/12/18 03:23:44;;;;;;;75.20;29.13;;;-5.10;99.90;;;;;;5090819;28;20298;-68
2022/12/18 03:26:15;;;;;;;86.00;31.27;;;-5.10;99.90;;;;;;5090333;28;20221;-69
2022/12/18 03:28:59;;;;;;;90.63;31.10;;;-5.10;99.90;;;;;;5089167;28;20206;-68
2022/12/18 03:31:29;;;;;;;87.10;31.63;;;-5.20;99.90;;;;;;5090057;28;20289;-68
2022/12/18 03:33:58;;;;;;;88.30;29.90;;;-5.20;99.90;;;;;;5090989;28;20227;-68
2022/12/18 03:36:26;;;;;;;89.10;32.00;;;-5.20;99.90;;;;;;5090525;28;20296;-69
2022/12/18 03:38:53;;;;;;;89.10;30.93;;;-5.20;99.90;;;;;;5089169;28;20202;-67
2022/12/18 03:41:41;;;;;;;92.07;30.47;;;-5.30;99.90;;;;;;5090167;28;20206;-68
2022/12/18 03:44:38;;;;;;;78.97;30.93;;;-5.30;99.90;;;;;;5090536;28;20198;-69
2022/12/18 03:47:13;;;;;;;96.30;30.97;;;-5.30;99.90;;;;;;5088825;28;20292;-67
2022/12/18 03:50:02;;;;;;;81.07;30.60;;;-5.30;99.90;;;;;;5090555;28;20296;-68
2022/12/18 03:52:42;;;;;;;82.83;29.87;;;-5.30;99.90;;;;;;5088630;28;20309;-68
2022/12/18 03:55:10;;;;;;;94.27;32.10;;;-5.40;99.90;;;;;;5089246;28;20214;-68
2022/12/18 03:57:38;;;;;;;77.93;31.40;;;-5.40;99.90;;;;;;5090571;28;20245;-68
2022/12/18 04:00:15;;;;;;;79.50;29.87;;;-5.40;99.90;;;;;;5088598;28;20256;-69
2022/12/18 04:02:48;;;;;;;86.90;29.73;;;-5.40;99.90;;;;;;5087578;28;20208;-68
2022/12/18 04:05:16;;;;;;;84.70;30.07;;;-5.40;99.90;;;;;;5090251;28;20606;-68
2022/12/18 04:07:45;;;;;;;89.77;31.17;;;-5.40;99.90;;;;;;5088872;28;20213;-68
2022/12/18 04:10:13;;;;;;;74.60;28.90;;;-5.40;99.90;;;;;;5088693;28;20302;-69
2022/12/18 04:12:40;;;;;;;87.30;32.73;;;-5.40;99.90;;;;;;5089870;28;20729;-68
2022/12/18 04:15:08;;;;;;;91.40;31.87;;;-5.50;99.90;;;;;;5089512;28;20517;-69
2022/12/18 04:17:35;;;;;;;87.93;30.40;;;-5.50;99.90;;;;;;5089664;28;20201;-69
2022/12/18 04:20:02;;;;;;;88.63;31.80;;;-5.50;99.90;;;;;;5090381;28;20204;-67
2022/12/18 04:22:29;;;;;;;79.63;31.07;;;-5.50;99.90;;;;;;5088172;28;20216;-68
2022/12/18 04:24:55;;;;;;;79.40;31.87;;;-5.50;99.90;;;;;;5088202;28;20260;-69
2022/12/18 04:27:22;;;;;;;95.13;31.20;;;-5.50;99.90;;;;;;5090241;28;20227;-69
2022/12/18 04:29:49;;;;;;;85.00;29.67;;;-5.60;99.90;;;;;;5088876;28;20213;-69
2022/12/18 04:32:15;;;;;;;92.33;30.97;;;-5.60;99.90;;;;;;5088628;28;20640;-68
2022/12/18 04:34:42;;;;;;;87.80;30.60;;;-5.60;99.90;;;;;;5089684;28;20665;-68
2022/12/18 04:37:09;;;;;;;85.83;30.40;;;-5.60;99.90;;;;;;5088564;28;20201;-68
2022/12/18 04:39:35;;;;;;;75.80;30.17;;;-5.60;99.90;;;;;;5089872;28;20249;-68
2022/12/18 04:42:02;;;;;;;79.10;28.53;;;-5.60;99.90;;;;;;5089188;28;20267;-70
2022/12/18 04:44:29;;;;;;;73.93;29.27;;;-5.60;99.90;;;;;;5088446;28;20292;-68
2022/12/18 04:46:55;;;;;;;81.27;28.83;;;-5.60;99.90;;;;;;5089480;28;20215;-69
2022/12/18 04:49:22;;;;;;;75.27;30.00;;;-5.60;99.90;;;;;;5089325;28;20789;-69
2022/12/18 04:51:49;;;;;;;86.57;29.67;;;-5.60;99.90;;;;;;5089065;28;20681;-68
2022/12/18 04:54:19;;;;;;;71.03;29.30;;;-5.60;99.90;;;;;;5089377;28;20313;-69
2022/12/18 04:56:45;;;;;;;75.30;28.97;;;-5.60;99.90;;;;;;5085861;28;20222;-68
2022/12/18 04:59:12;;;;;;;75.47;29.03;;;-5.60;99.90;;;;;;5088579;28;20660;-69
2022/12/18 05:01:39;;;;;;;70.13;26.47;;;-5.60;99.90;;;;;;5087860;28;20240;-69
2022/12/18 05:04:06;;;;;;;66.80;26.33;;;-5.60;99.90;;;;;;5088723;28;20265;-68
2022/12/18 05:06:33;;;;;;;77.83;28.83;;;-5.60;99.90;;;;;;5089134;28;20686;-68
2022/12/18 05:09:00;;;;;;;72.07;27.73;;;-5.60;99.90;;;;;;5088731;28;20541;-69
2022/12/18 05:11:27;;;;;;;77.33;28.90;;;-5.60;99.90;;;;;;5087254;28;20196;-68
2022/12/18 05:13:56;;;;;;;79.27;28.73;;;-5.60;99.90;;;;;;5089126;28;20257;-68
2022/12/18 05:16:23;;;;;;;76.83;27.70;;;-5.70;99.90;;;;;;5089226;28;20243;-68
2022/12/18 05:18:50;;;;;;;70.57;26.77;;;-5.70;99.90;;;;;;5088664;28;20238;-68
2022/12/18 05:21:17;;;;;;;69.23;28.60;;;-5.70;99.90;;;;;;5087806;28;20211;-68
2022/12/18 05:23:43;;;;;;;63.10;26.03;;;-5.70;99.90;;;;;;5089381;28;20262;-69
2022/12/18 05:26:15;;;;;;;69.63;28.20;;;-5.70;99.90;;;;;;5088115;28;20204;-69
2022/12/18 05:28:44;;;;;;;60.73;26.80;;;-5.70;99.90;;;;;;5089088;28;20601;-67
2022/12/18 05:31:11;;;;;;;62.23;25.70;;;-5.70;99.90;;;;;;5089643;28;20727;-68
2022/12/18 05:33:38;;;;;;;69.50;25.30;;;-5.70;99.90;;;;;;5089319;28;20301;-67
2022/12/18 05:36:07;;;;;;;62.00;24.10;;;-5.70;99.90;;;;;;5089015;28;20206;-67
2022/12/18 05:38:36;;;;;;;68.53;27.97;;;-5.80;99.90;;;;;;5088769;28;20241;-69
2022/12/18 05:41:05;;;;;;;62.13;25.63;;;-5.80;99.90;;;;;;5088409;28;20740;-68
2022/12/18 05:43:34;;;;;;;65.03;25.63;;;-5.80;99.90;;;;;;5085560;28;20234;-69
2022/12/18 05:46:10;;;;;;;68.37;25.83;;;-5.80;99.90;;;;;;5088924;28;20481;-69
2022/12/18 05:48:37;;;;;;;51.87;25.17;;;-5.80;99.90;;;;;;5088332;28;20201;-68
2022/12/18 05:51:07;;;;;;;64.53;25.47;;;-5.90;99.90;;;;;;5085864;28;20199;-69
2022/12/18 05:53:34;;;;;;;67.90;26.50;;;-5.90;99.90;;;;;;5087982;28;20232;-68
2022/12/18 05:56:06;;;;;;;59.77;25.67;;;-5.90;99.90;;;;;;5084222;28;20652;-69
2022/12/18 05:58:34;;;;;;;58.97;25.63;;;-5.90;99.90;;;;;;5085669;28;20237;-68
2022/12/18 06:01:16;;;;;;;64.30;25.67;;;-5.90;99.90;;;;;;5087191;28;20259;-68
2022/12/18 06:03:46;;;;;;;63.03;25.17;;;-5.90;99.90;;;;;;5068300;28;20640;-68
2022/12/18 06:06:18;;;;;;;67.80;26.67;;;-5.90;99.90;;;;;;5085556;28;20209;-69
2022/12/18 06:08:46;;;;;;;60.30;24.37;;;-5.90;99.90;;;;;;5087190;28;20239;-68
2022/12/18 06:11:16;;;;;;;64.53;25.97;;;-5.90;99.90;;;;;;5086031;28;20260;-69
2022/12/18 06:13:43;;;;;;;58.27;25.03;;;-5.90;99.90;;;;;;5088067;28;20213;-68
2022/12/18 06:16:12;;;;;;;62.13;25.43;;;-5.90;99.90;;;;;;5087925;28;20238;-69
2022/12/18 06:18:39;;;;;;;61.80;25.00;;;-5.90;99.90;;;;;;5089432;28;20240;-69
2022/12/18 06:21:06;;;;;;;66.63;25.70;;;-5.90;99.90;;;;;;5090391;28;20299;-68
2022/12/18 06:23:33;;;;;;;56.73;25.80;;;-5.90;99.90;;;;;;5090143;28;20198;-67
2022/12/18 06:26:09;;;;;;;62.93;24.87;;;-5.90;99.90;;;;;;5089265;28;20209;-68
2022/12/18 06:28:36;;;;;;;55.27;23.23;;;-5.90;99.90;;;;;;5088282;28;20218;-67
2022/12/18 06:31:04;;;;;;;56.97;25.50;;;-5.90;99.90;;;;;;5088058;28;20660;-69
2022/12/18 06:33:32;;;;;;;59.07;25.97;;;-5.90;99.90;;;;;;5088160;28;20259;-68
2022/12/18 06:36:04;;;;;;;65.13;25.90;;;-5.90;99.90;;;;;;5092336;28;20665;-67
2022/12/18 06:38:32;;;;;;;60.93;26.07;;;-5.80;99.90;;;;;;5090065;28;20291;-68
2022/12/18 06:40:59;;;;;;;60.33;25.43;;;-5.90;99.90;;;;;;5090325;28;20749;-68
2022/12/18 06:43:26;;;;;;;61.73;25.97;;;-5.90;99.90;;;;;;5089962;28;20751;-68
2022/12/18 06:46:00;;;;;;;61.10;25.90;;;-5.80;99.90;;;;;;5092267;28;20210;-69
2022/12/18 06:48:27;;;;;;;57.13;25.40;;;-5.90;99.90;;;;;;5094927;28;20291;-68
2022/12/18 06:50:54;;;;;;;52.50;24.33;;;-5.90;99.90;;;;;;5090840;28;20209;-68
2022/12/18 06:53:21;;;;;;;52.87;24.20;;;-5.90;99.90;;;;;;5090128;28;20581;-68
2022/12/18 06:55:48;;;;;;;65.53;25.37;;;-5.90;99.90;;;;;;5075896;28;20204;-67
2022/12/18 06:58:14;;;;;;;62.23;25.93;;;-5.90;99.90;;;;;;5090978;28;20648;-68
2022/12/18 07:00:41;;;;;;;54.93;25.40;;;-5.80;99.90;;;;;;5091244;28;20228;-69
2022/12/18 07:03:09;;;;;;;57.33;24.73;;;-5.90;99.90;;;;;;5091627;28;20289;-68
2022/12/18 07:05:40;;;;;;;59.37;25.13;;;-5.90;99.90;;;;;;5090207;28;20205;-68
2022/12/18 07:08:07;;;;;;;61.63;25.27;;;-5.90;99.90;;;;;;5090773;28;20226;-68
2022/12/18 07:10:41;;;;;;;51.77;24.40;;;-5.90;99.90;;;;;;5090444;28;20590;-68
2022/12/18 07:13:13;;;;;;;57.27;24.70;;;-5.90;99.90;;;;;;5090716;28;20228;-68
2022/12/18 07:15:41;;;;;;;54.07;23.70;;;-5.90;99.90;;;;;;5087073;28;20332;-68
2022/12/18 07:18:08;;;;;;;59.13;24.60;;;-5.90;99.90;;;;;;5090704;28;20209;-68
2022/12/18 07:20:35;;;;;;;55.20;23.13;;;-5.90;99.90;;;;;;5090588;28;20609;-67
2022/12/18 07:23:03;;;;;;;47.23;21.70;;;-5.90;99.90;;;;;;5089383;28;20290;-68
2022/12/18 07:25:33;;;;;;;49.77;24.93;;;-5.90;99.90;;;;;;5089353;28;20720;-68
2022/12/18 07:28:00;;;;;;;56.20;23.53;;;-5.80;99.90;;;;;;5072418;28;20297;-69
2022/12/18 07:30:27;;;;;;;56.90;23.93;;;-5.80;99.90;;;;;;5090267;28;20698;-68
2022/12/18 07:32:53;;;;;;;50.90;23.93;;;-5.80;99.90;;;;;;5055282;28;20199;-69
2022/12/18 07:35:20;;;;;;;53.90;23.57;;;-5.80;99.90;;;;;;5090515;28;20242;-68
2022/12/18 07:37:50;;;;;;;47.23;22.83;;;-5.80;99.90;;;;;;5090270;28;20202;-68
2022/12/18 07:40:17;;;;;;;51.83;22.93;;;-5.80;99.90;;;;;;5082305;28;20729;-68
2022/12/18 07:42:44;;;;;;;50.07;23.33;;;-5.80;99.90;;;;;;5082451;28;20221;-69
2022/12/18 07:45:11;;;;;;;48.63;21.40;;;-5.70;99.90;;;;;;5060178;28;20293;-68
2022/12/18 07:47:37;;;;;;;53.80;23.27;;;-5.80;99.90;;;;;;5092272;28;20216;-69
2022/12/18 07:50:05;;;;;;;49.30;21.47;;;-5.70;99.90;;;;;;5086552;28;20208;-69
2022/12/18 07:52:31;;;;;;;50.57;22.80;;;-5.70;99.90;;;;;;5089098;28;20288;-68
2022/12/18 07:54:58;;;;;;;46.60;21.97;;;-5.70;99.90;;;;;;5090029;28;20225;-67
2022/12/18 07:57:25;;;;;;;51.67;22.80;;;-5.60;99.90;;;;;;5089725;28;20693;-69
2022/12/18 08:00:12;;;;;;;45.83;22.93;;;-5.60;99.90;;;;;;5088219;28;20238;-67
2022/12/18 08:02:39;;;;;;;43.23;22.07;;;-5.60;99.90;;;;;;5089904;28;20227;-68
2022/12/18 08:05:08;;;;;;;55.87;23.33;;;-5.50;99.90;;;;;;5088184;28;20212;-68
2022/12/18 08:07:34;;;;;;;48.63;22.50;;;-5.50;99.90;;;;;;5089841;28;20200;-68
2022/12/18 08:10:01;;;;;;;52.80;23.57;;;-5.50;99.90;;;;;;5085770;28;20690;-68
2022/12/18 08:12:29;;;;;;;50.00;22.87;;;-5.40;99.90;;;;;;5088413;28;20313;-70
2022/12/18 08:14:56;;;;;;;48.03;22.23;;;-5.40;99.90;;;;;;5088851;28;20796;-67
2022/12/18 08:17:23;;;;;;;49.77;23.50;;;-5.30;99.90;;;;;;5087762;28;20357;-67
2022/12/18 08:19:49;;;;;;;43.80;21.67;;;-5.30;99.90;;;;;;5087785;28;20203;-68
2022/12/18 08:22:16;;;;;;;51.53;24.37;;;-5.20;99.90;;;;;;5088300;28;20206;-67
2022/12/18 08:24:43;;;;;;;50.80;22.63;;;-5.20;99.90;;;;;;5089342;28;20259;-68
2022/12/18 08:27:10;;;;;;;49.80;23.00;;;-5.20;99.90;;;;;;5087772;28;20702;-68
2022/12/18 08:29:55;;;;;;;51.53;21.70;;;-5.10;99.90;;;;;;5081605;28;20209;-68
2022/12/18 08:32:22;;;;;;;45.63;21.80;;;-5.00;99.90;;;;;;5089082;28;20716;-68
2022/12/18 08:34:49;;;;;;;47.30;21.50;;;-5.00;99.90;;;;;;5089869;28;20237;-69
2022/12/18 08:37:15;;;;;;;49.63;22.20;;;-4.90;99.90;;;;;;5068490;28;20203;-68
2022/12/18 08:39:42;;;;;;;51.03;22.67;;;-4.90;99.90;;;;;;5085827;28;20652;-69
2022/12/18 08:44:55;;;;;;;52.30;21.97;;;-4.80;99.90;;;;;;5087951;28;20323;-68
2022/12/18 08:47:21;;;;;;;54.57;22.30;;;-4.70;99.90;;;;;;5089088;28;20207;-69
2022/12/18 08:49:48;;;;;;;58.87;23.23;;;-4.70;99.90;;;;;;5089038;28;20664;-68
2022/12/18 08:52:15;;;;;;;46.03;22.00;;;-4.60;99.90;;;;;;5088925;28;20199;-68
2022/12/18 08:54:41;;;;;;;37.60;19.37;;;-4.50;99.90;;;;;;5070103;28;20228;-69
2022/12/18 08:57:08;;;;;;;47.90;20.57;;;-4.50;99.90;;;;;;5084757;28;20698;-68
2022/12/18 08:59:35;;;;;;;44.93;21.47;;;-4.40;99.90;;;;;;5087693;28;20662;-68
2022/12/18 09:02:01;;;;;;;43.37;19.80;;;-4.40;99.90;;;;;;5089156;28;20375;-69
2022/12/18 09:04:28;;;;;;;45.10;21.27;;;-4.40;99.90;;;;;;5089209;28;20199;-69
2022/12/18 09:06:55;;;;;;;35.03;19.00;;;-4.30;99.90;;;;;;5089078;28;20199;-68
2022/12/18 09:09:22;;;;;;;38.57;19.60;;;-4.20;99.90;;;;;;5088162;28;20287;-67
2022/12/18 09:11:49;;;;;;;44.13;20.73;;;-4.20;99.90;;;;;;5073656;28;20208;-69
2022/12/18 09:14:15;;;;;;;39.50;17.80;;;-4.20;99.90;;;;;;5089059;28;20234;-67
2022/12/18 09:16:42;;;;;;;39.37;18.00;;;-4.10;99.90;;;;;;5089752;28;20267;-68
2022/12/18 09:19:10;;;;;;;38.37;19.67;;;-4.00;99.90;;;;;;5089155;28;20204;-68
2022/12/18 09:21:37;;;;;;;36.93;18.80;;;-4.00;99.90;;;;;;5088679;28;20213;-68
2022/12/18 09:24:14;;;;;;;41.10;19.43;;;-3.90;99.90;;;;;;5087972;28;20607;-68
2022/12/18 09:26:41;;;;;;;39.00;19.53;;;-3.80;99.90;;;;;;5087869;28;20265;-68
2022/12/18 09:29:12;;;;;;;34.70;16.40;;;-3.70;99.90;;;;;;5086753;28;20214;-69
2022/12/18 09:31:39;;;;;;;41.37;19.70;;;-3.70;99.90;;;;;;5089068;28;20277;-69
2022/12/18 09:34:13;;;;;;;35.53;18.77;;;-3.60;99.90;;;;;;5087811;28;20260;-69
2022/12/18 09:36:40;;;;;;;36.53;17.00;;;-3.50;99.90;;;;;;5089216;28;20213;-69
2022/12/18 09:39:06;;;;;;;35.63;17.13;;;-3.40;99.90;;;;;;5084906;28;20215;-69
2022/12/18 09:41:49;;;;;;;34.90;17.03;;;-3.40;99.90;;;;;;5088605;28;20709;-68
2022/12/18 09:44:18;;;;;;;30.30;15.83;;;-3.30;99.90;;;;;;5085664;28;20512;-67
2022/12/18 09:46:51;;;;;;;35.90;17.80;;;-3.30;99.90;;;;;;5087575;28;20207;-68
2022/12/18 09:49:23;;;;;;;33.10;17.30;;;-3.20;99.90;;;;;;5168468;22;20786;-68
2022/12/18 09:52:16;;;;;;;33.83;16.30;;;-3.10;99.90;;;;;;5088311;28;20204;-69
2022/12/18 09:54:53;;;;;;;32.40;17.57;;;-3.10;99.90;;;;;;5106546;28;20315;-68
2022/12/18 09:57:22;;;;;;;31.77;16.07;;;-3.00;99.90;;;;;;5111276;28;20227;-68
2022/12/18 10:00:01;;;;;;;32.93;16.50;;;-2.90;99.90;;;;;;5111683;28;20286;-68
2022/12/18 10:02:31;;;;;;;27.27;15.23;;;-2.80;99.90;;;;;;5084803;28;20258;-68
2022/12/18 10:05:08;;;;;;;32.97;15.70;;;-2.80;99.90;;;;;;5112906;28;20195;-68
2022/12/18 10:07:49;;;;;;;29.13;15.23;;;-2.70;99.90;;;;;;5112065;28;20294;-70
2022/12/18 10:10:24;;;;;;;27.17;15.03;;;-2.60;99.90;;;;;;5111696;28;20561;-68
2022/12/18 10:12:58;;;;;;;25.73;14.87;;;-2.60;99.90;;;;;;5110486;28;20211;-68
2022/12/18 10:15:30;;;;;;;24.27;13.73;;;-2.50;99.90;;;;;;5112785;28;20231;-68
2022/12/18 10:18:20;;;;;;;27.47;13.70;;;-2.50;99.90;;;;;;5112078;28;20188;-70
2022/12/18 10:20:59;;;;;;;27.73;13.90;;;-2.40;99.90;;;;;;5077440;28;20203;-69
2022/12/18 10:24:16;;;;;;;23.03;14.50;;;-2.30;99.90;;;;;;5092487;28;20685;-69
2022/12/18 10:26:44;;;;;;;25.67;13.90;;;-2.30;99.90;;;;;;4988647;28;20216;-69
2022/12/18 10:29:13;;;;;;;28.40;13.07;;;-2.20;99.90;;;;;;5100173;28;20326;-68
2022/12/18 10:31:40;;;;;;;26.90;13.23;;;-2.20;99.90;;;;;;5110988;28;20208;-69
2022/12/18 10:34:13;;;;;;;26.67;13.20;;;-2.10;99.90;;;;;;5104654;28;20211;-67
2022/12/18 10:36:41;;;;;;;23.53;13.57;;;-2.00;99.90;;;;;;5111422;28;20206;-67
2022/12/18 10:39:19;;;;;;;23.67;12.60;;;-2.00;99.90;;;;;;5072820;28;20204;-69
2022/12/18 10:41:46;;;;;;;23.23;13.10;;;-1.90;99.90;;;;;;5101606;27;20232;-68
2022/12/18 10:44:20;;;;;;;23.20;12.93;;;-1.80;99.90;;;;;;5093874;28;20212;-69
2022/12/18 10:46:50;;;;;;;21.97;12.47;;;-1.80;99.90;;;;;;5111453;27;20725;-69
2022/12/18 10:49:41;;;;;;;27.37;13.27;;;-1.70;99.90;;;;;;5108908;28;20262;-68
2022/12/18 10:52:15;;;;;;;20.70;11.97;;;-1.70;99.90;;;;;;5108205;28;20299;-69
2022/12/18 10:55:03;;;;;;;23.83;13.07;;;-1.70;99.90;;;;;;5108708;28;21718;-69
2022/12/18 10:57:37;;;;;;;23.73;12.23;;;-1.60;99.90;;;;;;5105339;27;20768;-68
2022/12/18 11:00:28;;;;;;;19.33;11.13;;;-1.50;99.90;;;;;;5109567;28;20610;-69
2022/12/18 11:02:56;;;;;;;18.90;10.97;;;-1.50;99.90;;;;;;5110384;28;20201;-68
2022/12/18 11:05:32;;;;;;;23.23;11.70;;;-1.40;99.90;;;;;;5110975;28;20700;-69
2022/12/18 11:08:00;;;;;;;21.97;11.87;;;-1.40;99.90;;;;;;5110901;28;20227;-69
2022/12/18 11:10:32;;;;;;;22.33;12.10;;;-1.30;99.90;;;;;;5092449;28;20669;-68
2022/12/18 11:13:32;;;;;;;20.90;12.07;;;-1.20;99.90;;;;;;5093763;28;20250;-69
2022/12/18 11:15:59;;;;;;;18.67;11.13;;;-1.20;99.90;;;;;;5066172;28;20225;-68
2022/12/18 11:18:30;;;;;;;20.73;11.93;;;-1.10;99.90;;;;;;5110232;28;20228;-68
2022/12/18 11:21:09;;;;;;;18.73;10.87;;;-1.10;99.90;;;;;;5092776;28;20674;-68
2022/12/18 11:23:43;;;;;;;19.07;11.30;;;-1.00;99.90;;;;;;5111602;28;20316;-69
2022/12/18 11:26:10;;;;;;;19.50;11.20;;;-1.00;99.90;;;;;;5087551;28;20753;-69
2022/12/18 11:28:38;;;;;;;20.93;11.67;;;-0.90;99.90;;;;;;5109975;28;20262;-69
2022/12/18 11:31:18;;;;;;;22.17;11.30;;;-0.90;99.90;;;;;;5109761;28;20198;-68
2022/12/18 11:34:09;;;;;;;21.83;11.63;;;-0.80;99.90;;;;;;5093231;28;20714;-69
2022/12/18 11:36:59;;;;;;;18.37;11.47;;;-0.80;99.90;;;;;;5108478;28;20693;-68
2022/12/18 11:39:37;;;;;;;22.27;12.00;;;-0.80;99.90;;;;;;5109572;28;20233;-68
2022/12/18 11:42:24;;;;;;;17.57;11.23;;;-0.70;99.90;;;;;;5084736;28;20269;-69
2022/12/18 11:45:13;;;;;;;21.23;11.17;;;-0.70;99.90;;;;;;5084682;28;20329;-69
2022/12/18 11:47:53;;;;;;;26.10;11.70;;;-0.70;99.90;;;;;;5107764;28;20203;-69
2022/12/18 11:50:44;;;;;;;19.10;10.30;;;-0.60;99.90;;;;;;5108685;28;20268;-68
2022/12/18 11:53:12;;;;;;;19.40;11.40;;;-0.60;99.90;;;;;;5088695;28;20282;-69
2022/12/18 11:55:47;;;;;;;20.47;10.67;;;-0.50;99.90;;;;;;5108358;28;20206;-69
2022/12/18 11:58:29;;;;;;;19.77;10.73;;;-0.50;99.90;;;;;;5110134;28;20336;-69
2022/12/18 12:01:29;;;;;;;18.50;10.60;;;-0.50;99.90;;;;;;5107322;28;20209;-69
2022/12/18 12:04:22;;;;;;;19.10;11.60;;;-0.50;99.90;;;;;;5053131;28;20631;-68
2022/12/18 12:07:05;;;;;;;20.00;11.43;;;-0.40;99.90;;;;;;5108900;28;20664;-69
2022/12/18 12:09:59;;;;;;;15.50;10.33;;;-0.40;99.90;;;;;;5104982;28;20191;-69
2022/12/18 12:12:47;;;;;;;19.93;10.53;;;-0.30;99.90;;;;;;5110646;28;20223;-70
2022/12/18 12:15:53;;;;;;;21.63;11.77;;;-0.30;99.90;;;;;;5091381;28;20605;-69
2022/12/18 12:18:37;;;;;;;17.23;9.90;;;-0.20;99.90;;;;;;5109992;28;20293;-69
2022/12/18 12:21:22;;;;;;;19.40;9.97;;;-0.20;99.90;;;;;;5110365;28;20284;-69
2022/12/18 12:24:09;;;;;;;16.83;10.77;;;-0.20;99.90;;;;;;5109478;28;20285;-69
2022/12/18 12:26:41;;;;;;;21.00;11.87;;;-0.20;99.90;;;;;;5109457;28;20600;-68
2022/12/18 12:29:29;;;;;;;17.17;10.73;;;-0.20;99.90;;;;;;5110500;28;20233;-67
2022/12/18 12:31:55;;;;;;;21.80;11.23;;;-0.10;99.90;;;;;;5109088;28;20649;-70
2022/12/18 12:34:34;;;;;;;19.03;10.83;;;-0.10;99.90;;;;;;5088886;28;20199;-68
2022/12/18 12:37:22;;;;;;;17.17;10.23;;;-0.10;99.90;;;;;;5110110;28;20286;-68
2022/12/18 12:39:51;;;;;;;21.80;10.87;;;0.00;99.90;;;;;;5106980;28;20253;-69
2022/12/18 12:45:50;;;;;;;17.40;9.80;;;0.00;99.90;;;;;;5105451;28;20283;-68
2022/12/18 12:48:32;;;;;;;18.87;10.57;;;0.00;99.90;;;;;;5090851;28;20281;-68
2022/12/18 12:51:06;;;;;;;18.60;11.03;;;0.00;99.90;;;;;;5104137;28;20603;-68
2022/12/18 12:53:37;;;;;;;19.30;10.13;;;0.00;99.90;;;;;;5107770;28;20209;-68
2022/12/18 12:56:08;;;;;;;19.47;10.07;;;0.00;99.90;;;;;;5106509;28;20223;-69
2022/12/18 12:59:10;;;;;;;20.93;11.07;;;0.00;99.90;;;;;;5107058;28;20329;-68
2022/12/18 13:02:01;;;;;;;18.43;9.73;;;0.00;99.90;;;;;;5103236;28;20237;-68